Time;durP1;ratioP1;P1;durP2;ratioP2;P2;SDS_P1;SDS_P2;PMS_P1;PMS_P2;Temp;Humidity;BMP_temperature;BMP_pressure;BME280_temperature;BME280_humidity;BME280_pressure;Samples;Min_cycle;Max_cycle;Signal;HPM_P1;HPM_P2
2023/04/23 00:04:49;;;;;;;4.30;3.90;;;15.60;95.40;;;;;;10439105;28;20321;-81
2023/04/23 00:09:55;;;;;;;3.80;3.50;;;15.60;95.50;;;;;;10407386;28;20251;-81
2023/04/23 00:14:59;;;;;;;4.13;3.83;;;15.60;95.80;;;;;;10406343;28;20309;-81
2023/04/23 00:20:02;;;;;;;4.10;3.80;;;15.60;96.10;;;;;;10407425;28;20218;-81
2023/04/23 00:25:04;;;;;;;4.63;4.30;;;15.60;96.10;;;;;;10422348;28;20272;-81
2023/04/23 00:30:08;;;;;;;4.10;3.70;;;15.60;96.90;;;;;;10421843;28;20194;-81
2023/04/23 00:35:11;;;;;;;5.73;4.20;;;15.60;97.10;;;;;;10403069;28;20632;-80
2023/04/23 00:40:13;;;;;;;4.17;3.87;;;15.50;97.40;;;;;;10420360;28;20242;-80
2023/04/23 00:45:17;;;;;;;4.70;4.03;;;15.50;97.90;;;;;;10421230;28;20210;-81
2023/04/23 00:50:20;;;;;;;3.83;3.60;;;15.50;98.10;;;;;;10401396;28;20237;-81
2023/04/23 00:55:22;;;;;;;4.50;4.20;;;15.50;98.60;;;;;;10421345;28;20565;-81
2023/04/23 01:00:25;;;;;;;3.63;3.43;;;15.40;99.60;;;;;;10398365;28;20228;-81
2023/04/23 01:05:28;;;;;;;5.90;3.70;;;15.40;99.90;;;;;;10417416;28;20221;-81
2023/04/23 01:10:31;;;;;;;4.10;3.70;;;15.30;99.90;;;;;;10402335;28;20249;-81
2023/04/23 01:15:35;;;;;;;3.70;3.50;;;15.30;99.80;;;;;;10402063;28;20222;-81
2023/04/23 01:20:38;;;;;;;3.73;3.43;;;15.20;99.90;;;;;;10385752;28;20241;-81
2023/04/23 01:25:42;;;;;;;4.00;3.70;;;15.20;99.90;;;;;;10401776;28;20611;-81
2023/04/23 01:30:46;;;;;;;3.90;3.70;;;15.20;99.90;;;;;;10405268;28;20195;-81
2023/04/23 01:35:50;;;;;;;3.87;3.67;;;15.20;99.90;;;;;;10406449;28;20574;-81
2023/04/23 01:40:54;;;;;;;4.33;4.03;;;15.10;99.90;;;;;;10425702;28;20211;-81
2023/04/23 01:45:58;;;;;;;4.80;3.80;;;15.10;99.90;;;;;;10409884;28;20219;-81
2023/04/23 01:51:00;;;;;;;4.43;4.07;;;15.10;99.90;;;;;;10424748;28;20323;-81
2023/04/23 01:56:06;;;;;;;4.50;4.17;;;15.10;99.90;;;;;;10397934;28;20281;-81
2023/04/23 02:01:08;;;;;;;4.47;4.10;;;15.10;99.90;;;;;;10397296;28;20221;-81
2023/04/23 02:06:11;;;;;;;4.20;3.90;;;15.10;99.90;;;;;;10395923;28;20222;-81
2023/04/23 02:11:14;;;;;;;4.07;3.80;;;15.10;99.90;;;;;;10397085;28;20222;-81
2023/04/23 02:16:17;;;;;;;4.00;3.70;;;15.10;99.90;;;;;;10414751;28;20232;-81
2023/04/23 02:21:19;;;;;;;4.47;4.07;;;15.00;99.90;;;;;;10397089;28;20219;-81
2023/04/23 02:26:23;;;;;;;6.30;4.50;;;15.00;99.90;;;;;;10397470;28;20797;-80
2023/04/23 02:31:26;;;;;;;4.10;3.90;;;14.90;99.90;;;;;;10416795;28;20563;-81
2023/04/23 02:36:31;;;;;;;4.70;4.40;;;14.80;99.90;;;;;;10402148;28;20218;-81
2023/04/23 02:41:35;;;;;;;5.23;4.93;;;14.80;99.90;;;;;;10400224;28;20219;-81
2023/04/23 02:46:37;;;;;;;6.10;5.37;;;14.60;99.90;;;;;;10417622;28;20214;-81
2023/04/23 02:51:39;;;;;;;5.10;4.80;;;14.40;99.90;;;;;;10418256;28;20658;-81
2023/04/23 02:56:42;;;;;;;5.67;5.27;;;14.30;99.90;;;;;;10399451;28;20718;-81
2023/04/23 03:01:45;;;;;;;6.97;6.13;;;14.20;99.90;;;;;;10400881;28;20221;-81
2023/04/23 03:06:48;;;;;;;5.40;5.20;;;14.10;99.90;;;;;;10400410;28;20567;-81
2023/04/23 03:11:52;;;;;;;5.90;5.50;;;13.90;99.90;;;;;;10384590;28;20678;-81
2023/04/23 03:16:54;;;;;;;5.90;5.50;;;13.80;99.90;;;;;;10403457;28;20240;-82
2023/04/23 03:21:56;;;;;;;5.00;4.70;;;13.70;99.90;;;;;;10407982;28;20219;-82
2023/04/23 03:26:59;;;;;;;6.20;5.67;;;13.60;99.90;;;;;;10409550;28;20631;-82
2023/04/23 03:32:02;;;;;;;5.90;5.50;;;13.60;99.90;;;;;;10427147;28;20197;-82
2023/04/23 03:37:05;;;;;;;5.77;5.37;;;13.50;99.90;;;;;;10410682;28;20218;-82
2023/04/23 03:42:10;;;;;;;6.00;5.70;;;13.40;99.90;;;;;;10410576;28;20596;-82
2023/04/23 03:47:14;;;;;;;5.70;5.30;;;13.30;99.90;;;;;;10410100;28;20286;-82
2023/04/23 03:52:16;;;;;;;6.27;5.77;;;13.40;99.90;;;;;;10411127;28;20191;-81
2023/04/23 03:57:20;;;;;;;5.17;4.97;;;13.30;99.90;;;;;;10414906;28;20226;-81
2023/04/23 04:02:45;;;;;;;5.70;5.30;;;13.30;99.90;;;;;;10404007;28;20256;-81
2023/04/23 04:07:48;;;;;;;6.00;5.70;;;13.40;99.90;;;;;;10407418;28;20214;-81
2023/04/23 04:12:54;;;;;;;4.80;4.60;;;13.40;99.90;;;;;;10388317;28;20521;-81
2023/04/23 04:17:56;;;;;;;4.90;4.70;;;13.30;99.90;;;;;;10420970;28;20320;-80
2023/04/23 04:22:58;;;;;;;5.33;4.90;;;13.40;99.90;;;;;;10421630;28;20682;-81
2023/04/23 04:28:02;;;;;;;5.10;4.90;;;13.40;99.90;;;;;;10388396;28;20218;-80
2023/04/23 04:33:04;;;;;;;5.10;4.80;;;13.40;99.90;;;;;;10404943;28;20245;-80
2023/04/23 04:38:06;;;;;;;5.97;5.60;;;13.40;99.90;;;;;;10387392;28;20214;-79
2023/04/23 04:43:10;;;;;;;6.00;5.50;;;13.50;99.90;;;;;;10421837;28;20221;-79
2023/04/23 04:48:12;;;;;;;4.80;4.53;;;13.40;99.90;;;;;;10421968;28;20218;-81
2023/04/23 04:53:14;;;;;;;4.90;4.60;;;13.40;99.90;;;;;;10421286;28;20227;-81
2023/04/23 04:58:17;;;;;;;5.03;4.73;;;13.40;99.90;;;;;;10404073;28;20214;-81
2023/04/23 05:03:19;;;;;;;5.33;4.93;;;13.40;99.90;;;;;;10388948;28;20600;-80
2023/04/23 05:08:22;;;;;;;5.00;4.80;;;13.40;99.90;;;;;;10423088;28;20245;-80
2023/04/23 05:13:25;;;;;;;4.40;4.20;;;13.40;99.90;;;;;;10428624;28;20183;-80
2023/04/23 05:18:28;;;;;;;5.00;4.70;;;13.50;99.90;;;;;;10401797;28;20698;-80
2023/04/23 05:23:30;;;;;;;4.57;4.37;;;13.50;99.90;;;;;;10420575;28;20218;-80
2023/04/23 05:28:34;;;;;;;5.80;5.40;;;13.70;99.90;;;;;;10401078;28;20229;-81
2023/04/23 05:33:36;;;;;;;5.63;5.33;;;13.80;99.90;;;;;;10401241;28;20191;-80
2023/04/23 05:38:39;;;;;;;4.10;3.90;;;13.90;99.90;;;;;;10401240;28;20226;-82
2023/04/23 05:43:42;;;;;;;4.10;3.90;;;14.10;99.90;;;;;;10420339;28;20222;-81
2023/04/23 05:48:44;;;;;;;4.50;4.20;;;14.30;99.90;;;;;;10421425;28;20253;-81
2023/04/23 05:53:46;;;;;;;3.60;3.20;;;14.50;99.90;;;;;;10386710;28;20297;-80
2023/04/23 05:58:50;;;;;;;2.80;2.70;;;14.60;99.90;;;;;;10421708;28;20684;-80
2023/04/23 06:03:52;;;;;;;3.00;2.90;;;14.70;99.90;;;;;;10423016;28;20226;-80
2023/04/23 06:08:54;;;;;;;3.40;3.30;;;14.70;99.90;;;;;;10417046;28;20218;-81
2023/04/23 06:13:58;;;;;;;3.40;3.20;;;14.80;99.90;;;;;;10416886;28;20685;-81
2023/04/23 06:19:00;;;;;;;3.10;2.80;;;14.90;99.90;;;;;;10398257;28;20215;-81
2023/04/23 06:24:02;;;;;;;3.03;2.83;;;15.00;99.90;;;;;;10416652;28;20218;-81
2023/04/23 06:29:05;;;;;;;3.00;2.73;;;15.00;99.90;;;;;;10416645;28;20240;-81
2023/04/23 06:34:12;;;;;;;3.60;3.40;;;15.10;99.90;;;;;;10399963;28;20542;-82
2023/04/23 06:39:14;;;;;;;7.87;7.07;;;15.10;99.90;;;;;;10386789;28;20665;-82
2023/04/23 06:44:18;;;;;;;2.77;2.67;;;15.20;99.90;;;;;;10402577;28;20215;-81
2023/04/23 06:49:26;;;;;;;2.67;2.50;;;15.40;99.90;;;;;;10419697;28;20215;-81
2023/04/23 06:54:28;;;;;;;3.37;3.23;;;15.50;99.90;;;;;;10403978;28;20558;-81
2023/04/23 06:59:32;;;;;;;2.73;2.63;;;15.40;99.90;;;;;;10440911;28;20225;-81
2023/04/23 07:04:35;;;;;;;2.40;2.30;;;15.40;99.90;;;;;;10428122;28;20199;-81
2023/04/23 07:09:38;;;;;;;2.63;2.53;;;15.40;99.90;;;;;;10411291;28;20221;-82
2023/04/23 07:14:41;;;;;;;2.60;2.40;;;15.40;99.90;;;;;;10393769;28;20233;-82
2023/04/23 07:19:43;;;;;;;2.73;2.63;;;15.60;99.90;;;;;;10427903;28;20191;-82
2023/04/23 07:24:45;;;;;;;4.10;2.70;;;15.90;99.90;;;;;;10428944;28;20613;-81
2023/04/23 07:29:49;;;;;;;2.60;2.50;;;16.10;99.90;;;;;;10428601;28;20639;-81
2023/04/23 07:34:51;;;;;;;3.63;2.63;;;16.30;99.90;;;;;;10424239;28;20589;-81
2023/04/23 07:39:53;;;;;;;2.80;2.70;;;16.40;99.90;;;;;;10423560;28;20221;-82
2023/04/23 07:44:56;;;;;;;2.73;2.57;;;16.60;99.90;;;;;;10408216;28;20215;-83
2023/04/23 07:49:58;;;;;;;2.70;2.60;;;16.90;99.90;;;;;;10429204;28;20264;-83
2023/04/23 07:55:01;;;;;;;2.70;2.60;;;17.20;99.90;;;;;;10420953;28;20227;-83
2023/04/23 08:00:08;;;;;;;2.60;2.50;;;17.50;99.90;;;;;;10409177;28;20218;-83
2023/04/23 08:05:13;;;;;;;2.17;2.07;;;17.70;99.90;;;;;;10426036;28;20238;-82
2023/04/23 08:10:16;;;;;;;2.20;2.10;;;17.90;99.90;;;;;;10408990;28;20222;-83
2023/04/23 08:15:19;;;;;;;4.33;2.17;;;18.10;99.90;;;;;;10422078;28;20234;-83
2023/04/23 08:20:21;;;;;;;3.00;2.03;;;18.20;99.90;;;;;;10413457;28;20226;-82
2023/04/23 08:25:23;;;;;;;2.03;1.93;;;18.10;99.90;;;;;;10411761;28;20223;-83
2023/04/23 08:30:27;;;;;;;2.37;2.27;;;18.10;99.90;;;;;;10422620;28;20210;-83
2023/04/23 08:35:29;;;;;;;2.37;2.27;;;18.20;99.90;;;;;;10421134;28;20222;-82
2023/04/23 08:40:35;;;;;;;2.33;2.23;;;18.30;99.90;;;;;;10399345;28;20443;-84
2023/04/23 08:45:40;;;;;;;3.60;3.40;;;18.40;99.80;;;;;;10418452;28;20697;-84
2023/04/23 08:50:44;;;;;;;2.60;2.30;;;18.50;98.20;;;;;;10422235;28;20218;-84
2023/04/23 08:55:47;;;;;;;2.33;2.23;;;18.90;99.40;;;;;;10420147;28;20238;-84
2023/04/23 09:00:51;;;;;;;2.20;2.10;;;19.30;96.30;;;;;;10423618;28;20217;-84
2023/04/23 09:05:54;;;;;;;2.73;2.10;;;19.50;97.00;;;;;;10410345;28;20290;-83
2023/04/23 09:11:00;;;;;;;2.43;2.23;;;19.40;97.10;;;;;;10420306;28;20194;-83
2023/04/23 09:16:05;;;;;;;2.13;1.93;;;19.30;96.50;;;;;;10417668;28;20218;-82
2023/04/23 09:21:07;;;;;;;2.30;2.10;;;19.20;95.60;;;;;;10461658;23;20379;-82
2023/04/23 09:26:09;;;;;;;2.30;2.20;;;19.20;93.60;;;;;;10439586;28;20619;-82
2023/04/23 09:31:13;;;;;;;2.13;2.03;;;19.30;93.30;;;;;;10425817;28;20214;-81
2023/04/23 09:36:15;;;;;;;2.00;1.90;;;19.60;91.90;;;;;;10421229;28;20194;-83
2023/04/23 09:41:22;;;;;;;1.90;1.80;;;19.50;91.10;;;;;;10420713;28;20322;-83
2023/04/23 09:46:37;;;;;;;2.20;2.10;;;19.50;92.20;;;;;;10421126;28;20198;-85
2023/04/23 09:51:39;;;;;;;2.60;2.40;;;19.90;91.70;;;;;;10437435;28;20210;-85
2023/04/23 09:56:42;;;;;;;1.70;1.70;;;20.20;91.20;;;;;;10441059;28;20195;-83
2023/04/23 10:01:46;;;;;;;1.60;1.60;;;20.40;91.30;;;;;;10420489;28;20284;-85
2023/04/23 10:06:49;;;;;;;2.10;2.00;;;20.60;92.00;;;;;;10459301;28;20213;-82
2023/04/23 10:11:52;;;;;;;3.93;3.23;;;20.80;92.40;;;;;;10482117;28;20179;-85
2023/04/23 10:16:58;;;;;;;2.10;2.00;;;20.90;90.50;;;;;;10447635;28;20321;-84
2023/04/23 10:22:04;;;;;;;2.60;1.60;;;20.90;89.80;;;;;;10434070;28;20214;-85
2023/04/23 10:27:11;;;;;;;1.90;1.80;;;20.70;87.80;;;;;;10419191;28;20765;-85
2023/04/23 10:32:17;;;;;;;1.87;1.77;;;20.40;90.70;;;;;;10435270;28;20654;-85
2023/04/23 10:37:19;;;;;;;2.10;2.00;;;20.10;91.00;;;;;;10435127;28;20245;-84
2023/04/23 10:42:22;;;;;;;2.30;2.20;;;20.00;92.60;;;;;;10419010;28;20658;-85
2023/04/23 10:47:25;;;;;;;2.13;2.03;;;20.00;90.30;;;;;;10434793;28;20210;-85
2023/04/23 10:52:32;;;;;;;2.20;2.10;;;20.00;88.50;;;;;;10435033;28;20190;-85
2023/04/23 10:57:56;;;;;;;1.80;1.70;;;19.90;90.80;;;;;;10452338;28;20238;-85
2023/04/23 11:03:02;;;;;;;1.80;1.70;;;19.90;89.60;;;;;;10435591;28;20213;-86
2023/04/23 11:08:06;;;;;;;2.00;1.90;;;19.90;87.10;;;;;;10418998;28;20592;-86
2023/04/23 11:13:22;;;;;;;1.83;1.73;;;19.90;90.10;;;;;;10435805;28;20587;-86
2023/04/23 11:18:27;;;;;;;1.83;1.73;;;20.00;90.00;;;;;;10434765;28;20700;-85
2023/04/23 11:23:31;;;;;;;2.30;2.20;;;19.90;88.80;;;;;;10418412;28;20222;-86
2023/04/23 11:28:37;;;;;;;2.43;2.23;;;19.90;91.70;;;;;;10435015;28;20236;-85
2023/04/23 11:33:40;;;;;;;1.40;1.30;;;19.90;90.30;;;;;;10434440;28;20662;-86
2023/04/23 11:38:42;;;;;;;2.20;2.10;;;19.80;88.10;;;;;;10417025;28;20651;-84
2023/04/23 11:43:44;;;;;;;1.80;1.70;;;19.70;91.10;;;;;;10421168;28;20214;-84
2023/04/23 11:48:48;;;;;;;2.00;1.90;;;19.60;86.90;;;;;;10441944;28;20260;-86
2023/04/23 11:53:50;;;;;;;1.90;1.80;;;19.60;90.60;;;;;;10415790;28;20298;-86
2023/04/23 11:59:00;;;;;;;1.80;1.70;;;19.70;86.40;;;;;;10411228;28;20272;-86
2023/04/23 12:04:11;;;;;;;2.00;1.90;;;19.70;84.90;;;;;;10432008;28;20253;-85
2023/04/23 12:09:15;;;;;;;1.57;1.57;;;19.70;86.10;;;;;;10414761;28;20214;-85
2023/04/23 12:14:19;;;;;;;7.90;7.20;;;19.80;90.70;;;;;;10432581;28;20655;-85
2023/04/23 12:19:28;;;;;;;2.10;2.00;;;19.70;91.00;;;;;;10444126;28;20225;-85
2023/04/23 12:24:44;;;;;;;2.40;2.20;;;19.70;88.10;;;;;;10461723;28;20704;-85
2023/04/23 12:29:47;;;;;;;1.60;1.60;;;19.70;90.20;;;;;;10423307;28;20214;-85
2023/04/23 12:34:54;;;;;;;6.10;1.60;;;19.60;90.00;;;;;;10440294;28;20285;-85
2023/04/23 12:39:58;;;;;;;1.77;1.67;;;19.60;87.60;;;;;;10457002;28;20222;-86
2023/04/23 12:45:07;;;;;;;1.83;1.63;;;19.70;87.90;;;;;;10439485;28;20267;-85
2023/04/23 12:50:11;;;;;;;2.00;1.90;;;19.60;90.00;;;;;;10439165;28;20241;-85
2023/04/23 12:55:13;;;;;;;2.20;2.00;;;19.40;90.40;;;;;;10420915;28;20186;-85
2023/04/23 13:00:16;;;;;;;1.87;1.77;;;19.40;86.10;;;;;;10421729;28;20245;-85
2023/04/23 13:05:19;;;;;;;2.20;2.10;;;19.30;88.80;;;;;;10438185;28;20221;-85
2023/04/23 13:10:22;;;;;;;2.23;2.13;;;19.30;85.90;;;;;;10437423;28;20604;-85
2023/04/23 13:15:24;;;;;;;3.90;2.53;;;19.20;86.00;;;;;;10421525;28;20619;-85
2023/04/23 13:20:27;;;;;;;2.17;2.07;;;19.20;87.60;;;;;;10438785;28;20260;-85
2023/04/23 13:25:29;;;;;;;1.80;1.70;;;19.20;88.70;;;;;;10455728;28;20301;-84
2023/04/23 13:30:31;;;;;;;3.50;1.97;;;19.20;84.80;;;;;;10437362;28;20634;-84
2023/04/23 13:35:36;;;;;;;1.83;1.57;;;19.30;88.20;;;;;;10437275;28;20195;-85
2023/04/23 13:40:38;;;;;;;1.70;1.60;;;19.30;82.90;;;;;;10437742;28;20217;-85
2023/04/23 13:45:40;;;;;;;1.97;1.87;;;19.60;80.90;;;;;;10457703;28;20579;-85
2023/04/23 13:50:44;;;;;;;1.80;1.70;;;19.60;82.00;;;;;;10403582;28;20650;-85
2023/04/23 13:55:46;;;;;;;5.90;5.40;;;19.60;84.50;;;;;;10399443;28;20716;-85
2023/04/23 14:00:48;;;;;;;1.80;1.70;;;19.60;83.50;;;;;;10434213;28;20222;-85
2023/04/23 14:05:52;;;;;;;2.10;2.00;;;19.60;79.00;;;;;;10440625;28;20201;-85
2023/04/23 14:10:54;;;;;;;1.80;1.70;;;19.50;82.90;;;;;;10437925;28;20277;-85
2023/04/23 14:15:56;;;;;;;2.33;1.70;;;19.60;80.60;;;;;;10438341;28;20205;-85
2023/04/23 14:21:00;;;;;;;1.97;1.87;;;19.60;81.10;;;;;;10439846;28;20649;-85
2023/04/23 14:26:04;;;;;;;2.90;1.90;;;19.60;81.30;;;;;;10441484;28;20202;-85
2023/04/23 14:31:07;;;;;;;2.40;2.20;;;19.60;82.00;;;;;;10440611;28;20217;-85
2023/04/23 14:36:11;;;;;;;3.40;2.03;;;19.60;81.00;;;;;;10457108;28;20745;-85
2023/04/23 14:41:13;;;;;;;2.00;1.90;;;19.70;81.30;;;;;;10423326;28;20225;-85
2023/04/23 14:46:15;;;;;;;2.07;1.97;;;19.70;82.80;;;;;;10437944;28;20672;-85
2023/04/23 14:51:18;;;;;;;1.60;1.50;;;19.70;81.00;;;;;;10421117;28;20264;-85
2023/04/23 14:56:20;;;;;;;6.10;5.60;;;19.70;79.80;;;;;;10455087;28;20188;-84
2023/04/23 15:01:23;;;;;;;3.33;1.73;;;19.70;80.40;;;;;;10484610;28;20201;-84
2023/04/23 15:06:27;;;;;;;1.80;1.70;;;19.70;82.10;;;;;;10456123;28;20194;-85
2023/04/23 15:11:29;;;;;;;1.60;1.50;;;19.60;81.80;;;;;;10418976;28;20221;-83
2023/04/23 15:16:33;;;;;;;1.83;1.70;;;19.60;78.00;;;;;;10418383;28;20198;-83
2023/04/23 15:21:41;;;;;;;1.70;1.60;;;19.60;82.70;;;;;;10435258;22;20226;-81
2023/04/23 15:26:44;;;;;;;2.87;1.87;;;19.60;84.80;;;;;;10405394;28;20202;-81
2023/04/23 15:31:46;;;;;;;3.00;1.80;;;19.60;82.90;;;;;;10400177;28;20215;-82
2023/04/23 15:36:50;;;;;;;1.70;1.70;;;19.50;86.60;;;;;;10415533;28;20201;-82
2023/04/23 15:42:00;;;;;;;1.90;1.60;;;19.30;87.50;;;;;;10404269;28;20298;-81
2023/04/23 15:47:02;;;;;;;2.17;2.00;;;19.20;84.60;;;;;;10367478;28;20226;-81
2023/04/23 15:52:07;;;;;;;1.73;1.63;;;19.00;90.40;;;;;;10360321;28;20214;-82
2023/04/23 15:57:10;;;;;;;2.17;1.97;;;18.70;91.40;;;;;;10371871;28;20219;-80
2023/04/23 16:02:12;;;;;;;3.33;1.80;;;18.10;92.30;;;;;;10377977;28;20198;-82
2023/04/23 16:07:15;;;;;;;1.90;1.80;;;17.70;93.30;;;;;;10380313;28;20205;-80
2023/04/23 16:12:17;;;;;;;1.70;1.60;;;17.60;93.90;;;;;;10372752;28;20587;-80
2023/04/23 16:17:19;;;;;;;2.20;2.10;;;17.60;95.10;;;;;;10378372;28;20206;-80
2023/04/23 16:22:24;;;;;;;2.10;1.93;;;17.60;95.60;;;;;;10383399;28;20219;-80
2023/04/23 16:27:26;;;;;;;2.00;1.90;;;17.70;95.50;;;;;;10364882;28;20749;-80
2023/04/23 16:32:30;;;;;;;2.50;2.30;;;17.70;96.80;;;;;;10379714;28;20209;-80
2023/04/23 16:37:35;;;;;;;2.40;2.20;;;17.60;96.60;;;;;;10382602;28;20211;-81
2023/04/23 16:42:37;;;;;;;4.17;3.73;;;17.60;97.30;;;;;;10375744;28;20215;-80
2023/04/23 16:47:42;;;;;;;5.40;5.10;;;17.10;99.90;;;;;;10380782;28;20242;-81
2023/04/23 16:52:46;;;;;;;6.47;5.70;;;16.50;99.90;;;;;;10407427;28;20604;-80
2023/04/23 16:57:48;;;;;;;5.77;5.47;;;16.10;99.90;;;;;;10380213;28;20238;-79
2023/04/23 17:02:50;;;;;;;7.27;6.57;;;15.80;99.90;;;;;;10406531;28;20268;-81
2023/04/23 17:07:53;;;;;;;6.80;6.27;;;15.50;99.90;;;;;;10385738;28;20222;-80
2023/04/23 17:12:55;;;;;;;6.37;5.80;;;15.20;99.90;;;;;;10389335;28;20254;-81
2023/04/23 17:17:57;;;;;;;6.10;5.70;;;15.10;99.90;;;;;;10374097;28;20227;-82
2023/04/23 17:23:01;;;;;;;6.17;5.70;;;15.00;99.90;;;;;;10388661;28;20214;-81
2023/04/23 17:28:03;;;;;;;5.10;4.80;;;15.00;99.90;;;;;;10417902;28;20380;-79
2023/04/23 17:33:05;;;;;;;4.73;4.53;;;14.90;99.90;;;;;;10366577;28;20203;-79
2023/04/23 17:38:09;;;;;;;4.30;4.10;;;14.80;99.90;;;;;;10377203;28;20286;-78
2023/04/23 17:43:12;;;;;;;5.47;5.13;;;14.80;99.90;;;;;;10355079;28;20298;-81
2023/04/23 17:48:15;;;;;;;5.73;5.30;;;14.80;99.90;;;;;;10345505;28;20258;-80
2023/04/23 17:53:18;;;;;;;5.20;4.90;;;14.80;99.90;;;;;;10356286;28;20242;-81
2023/04/23 17:58:20;;;;;;;6.83;6.37;;;14.70;99.90;;;;;;10395012;28;20219;-79
2023/04/23 18:03:22;;;;;;;6.47;5.97;;;14.80;99.90;;;;;;10378574;28;20247;-79
2023/04/23 18:08:26;;;;;;;5.00;4.63;;;14.90;99.90;;;;;;10409391;28;20297;-80
2023/04/23 18:13:28;;;;;;;8.67;7.33;;;14.90;99.90;;;;;;10386694;28;20199;-80
2023/04/23 18:18:30;;;;;;;5.30;4.40;;;14.90;99.90;;;;;;10349516;28;20676;-80
2023/04/23 18:23:34;;;;;;;5.93;5.53;;;14.80;99.90;;;;;;10393021;28;20261;-79
2023/04/23 18:28:38;;;;;;;10.30;9.23;;;14.80;99.90;;;;;;10402917;28;20228;-80
2023/04/23 18:33:47;;;;;;;19.83;13.80;;;14.80;99.90;;;;;;10404118;28;20187;-80
2023/04/23 18:38:53;;;;;;;5.47;5.07;;;14.80;99.90;;;;;;10372658;28;20219;-80
2023/04/23 18:43:55;;;;;;;12.93;11.63;;;14.70;99.90;;;;;;10406067;28;20218;-80
2023/04/23 18:49:00;;;;;;;7.50;6.80;;;14.60;99.90;;;;;;10396170;28;20211;-81
2023/04/23 18:54:04;;;;;;;6.57;5.93;;;14.50;99.90;;;;;;10384870;28;20201;-81
2023/04/23 18:59:06;;;;;;;10.13;6.70;;;14.40;99.90;;;;;;10416344;28;20238;-82
2023/04/23 19:04:09;;;;;;;4.80;4.50;;;14.30;99.90;;;;;;10415481;28;20222;-81
2023/04/23 19:09:12;;;;;;;5.57;5.17;;;14.30;99.90;;;;;;10408714;28;20306;-82
2023/04/23 19:14:15;;;;;;;6.10;5.80;;;14.30;99.90;;;;;;10430423;28;20190;-81
2023/04/23 19:19:17;;;;;;;6.30;5.70;;;14.30;99.90;;;;;;10396767;28;20715;-82
2023/04/23 19:24:20;;;;;;;7.53;6.67;;;14.30;99.90;;;;;;10395918;28;20227;-82
2023/04/23 19:29:22;;;;;;;5.80;5.40;;;14.40;99.90;;;;;;10413936;28;20270;-82
2023/04/23 19:34:25;;;;;;;8.00;7.40;;;14.50;99.90;;;;;;10388530;28;20558;-80
2023/04/23 19:39:28;;;;;;;7.93;7.53;;;14.50;99.90;;;;;;10415150;28;20580;-82
2023/04/23 19:44:30;;;;;;;6.77;6.27;;;14.40;99.90;;;;;;10411184;28;20257;-81
2023/04/23 19:49:32;;;;;;;7.67;7.20;;;14.30;99.90;;;;;;10384453;28;20211;-82
2023/04/23 19:54:35;;;;;;;8.43;8.13;;;14.00;99.90;;;;;;10373001;28;20202;-79
2023/04/23 19:59:38;;;;;;;9.47;9.03;;;13.80;99.90;;;;;;10380166;28;20214;-80
2023/04/23 20:04:40;;;;;;;8.20;7.90;;;13.60;99.90;;;;;;10369054;28;20290;-80
2023/04/23 20:09:43;;;;;;;9.20;8.70;;;13.40;99.90;;;;;;10383411;28;20226;-80
2023/04/23 20:14:47;;;;;;;7.90;7.50;;;13.30;99.90;;;;;;10352903;28;20199;-82
2023/04/23 20:19:49;;;;;;;7.53;7.20;;;13.20;99.90;;;;;;10360807;28;20233;-81
2023/04/23 20:24:53;;;;;;;7.50;7.20;;;13.00;99.90;;;;;;10391946;28;20265;-82
2023/04/23 20:29:55;;;;;;;6.33;5.93;;;13.00;99.90;;;;;;10393967;28;20705;-81
2023/04/23 20:34:58;;;;;;;5.90;5.70;;;12.90;99.90;;;;;;10419737;28;20289;-81
2023/04/23 20:40:02;;;;;;;5.73;5.53;;;12.80;99.90;;;;;;10361601;28;20290;-83
2023/04/23 20:45:05;;;;;;;5.20;4.90;;;12.80;99.90;;;;;;10396555;28;20225;-81
2023/04/23 20:50:08;;;;;;;4.90;4.70;;;12.90;99.90;;;;;;10380845;28;20206;-80
2023/04/23 20:55:12;;;;;;;5.43;5.13;;;12.90;99.90;;;;;;10414653;28;20199;-79
2023/04/23 21:00:14;;;;;;;4.13;3.93;;;12.90;99.90;;;;;;10392886;28;20258;-81
2023/04/23 21:05:16;;;;;;;4.10;4.00;;;12.90;99.90;;;;;;10405213;28;20230;-78
2023/04/23 21:10:21;;;;;;;5.30;5.00;;;12.90;99.90;;;;;;10370842;28;20285;-80
2023/04/23 21:15:23;;;;;;;5.37;5.07;;;13.00;99.90;;;;;;10379606;28;20222;-78
2023/04/23 21:20:25;;;;;;;3.97;3.77;;;12.90;99.90;;;;;;10403198;28;20230;-80
2023/04/23 21:25:28;;;;;;;4.67;4.47;;;12.90;99.90;;;;;;10387884;28;20226;-80
2023/04/23 21:30:41;;;;;;;3.80;3.60;;;12.90;99.90;;;;;;10404101;28;20222;-77
2023/04/23 21:35:43;;;;;;;3.30;3.20;;;13.00;99.90;;;;;;10391189;28;20191;-81
2023/04/23 21:40:47;;;;;;;3.10;2.93;;;13.00;99.90;;;;;;10348560;28;20557;-81
2023/04/23 21:45:49;;;;;;;3.10;2.70;;;13.00;99.90;;;;;;10390664;28;20576;-80
2023/04/23 21:50:52;;;;;;;3.40;2.53;;;13.10;99.90;;;;;;10402999;28;20245;-80
2023/04/23 21:55:56;;;;;;;3.03;2.70;;;13.00;99.90;;;;;;10385018;28;20197;-80
2023/04/23 22:00:58;;;;;;;2.30;2.20;;;13.00;99.90;;;;;;10390497;28;20219;-79
2023/04/23 22:06:01;;;;;;;2.43;2.33;;;13.00;99.90;;;;;;10401565;28;20221;-79
2023/04/23 22:11:05;;;;;;;2.93;2.83;;;13.00;99.90;;;;;;10392169;28;20215;-80
2023/04/23 22:16:09;;;;;;;2.50;2.40;;;13.00;99.90;;;;;;10384989;28;20282;-80
2023/04/23 22:21:12;;;;;;;2.70;2.60;;;13.00;99.90;;;;;;10391936;28;20234;-80
2023/04/23 22:26:15;;;;;;;2.63;2.53;;;13.00;99.90;;;;;;10382798;28;20221;-80
2023/04/23 22:31:18;;;;;;;2.97;2.83;;;13.10;99.90;;;;;;10376911;28;20225;-80
2023/04/23 22:36:20;;;;;;;3.00;2.80;;;13.10;99.90;;;;;;10403368;28;20277;-80
2023/04/23 22:41:23;;;;;;;2.70;2.60;;;13.10;99.90;;;;;;10374269;28;20306;-79
2023/04/23 22:46:25;;;;;;;2.70;2.60;;;13.10;99.90;;;;;;10399900;28;20227;-79
2023/04/23 22:51:29;;;;;;;2.30;2.20;;;13.10;99.90;;;;;;10397708;28;20234;-80
2023/04/23 22:56:33;;;;;;;3.00;2.80;;;13.10;99.90;;;;;;10382432;28;20204;-79
2023/04/23 23:01:35;;;;;;;2.20;2.10;;;13.10;99.90;;;;;;10394323;28;20315;-80
2023/04/23 23:06:37;;;;;;;2.00;1.90;;;13.10;99.90;;;;;;10402499;28;20626;-80
2023/04/23 23:11:40;;;;;;;3.90;2.50;;;13.20;99.90;;;;;;10380181;28;20219;-80
2023/04/23 23:16:42;;;;;;;2.33;2.20;;;13.20;99.90;;;;;;10377354;28;20222;-80
2023/04/23 23:21:44;;;;;;;2.10;2.00;;;13.20;99.90;;;;;;10403465;28;20238;-79
2023/04/23 23:26:48;;;;;;;2.07;1.97;;;13.20;99.90;;;;;;10395646;28;20219;-79
2023/04/23 23:31:50;;;;;;;1.90;1.80;;;13.20;99.90;;;;;;10377992;28;20219;-80
2023/04/23 23:36:52;;;;;;;2.50;1.90;;;13.20;99.90;;;;;;10396711;28;20232;-80
2023/04/23 23:41:56;;;;;;;2.07;1.97;;;13.20;99.90;;;;;;10386774;28;20226;-80
2023/04/23 23:46:58;;;;;;;3.20;2.60;;;13.30;99.90;;;;;;10425926;28;20214;-79
2023/04/23 23:52:00;;;;;;;2.43;2.23;;;13.30;99.90;;;;;;10412622;28;20229;-81
2023/04/23 23:57:04;;;;;;;2.00;1.90;;;13.20;99.90;;;;;;10403061;28;20233;-80
